x

Shp - Shell Point, Fl (shpf1) Weather Station

9:54am - Mon 11th Dec 2017 All times are CST. -6 hours from GMT.

  • Wind
    3mph, 6mph gusts
  • Air Temp 52°f
  • Sea Pressure 1025.3mb
  • Shp - Shell Point, Fl
  • Shp - Shell Point, Fl

More Historic Weather Station data

Upgrade to MSW Pro to gain access to the past 30 days of data for over 8000 Wavebouys and Weather Stations around the globe.

Join

Comparision Forecast

View Surf forecast
   
Mon 12/11 9:54am 3 6 mph 1025.3mb 52f
9:48am 3 5 mph 1025.3mb 52f
8:54am 3 5 mph 1025.9mb 47f
8:48am 5 9 mph 1025.9mb 46f
7:54am 5 9 mph 1026.1mb 44f
7:48am 3 10 mph 1026mb 43f
6:54am 5 6 mph 1026mb 38f
6:48am 5 6 mph 1025.9mb 37f
5:54am 2 3 mph 1025.7mb 37f
5:48am 2 3 mph 1025.7mb 37f
4:54am 5 6 mph 1025.5mb 38f
4:48am 3 5 mph 1025.5mb 38f
3:54am 3 3 mph 1025.5mb 38f
2:54am 2 3 mph 1025.8mb 37f
2:48am 2 2 mph 1025.8mb 37f
1:54am 3 5 mph 1025.9mb 39f
1:48am 3 5 mph 1025.9mb 39f
12:54am 5 6 mph 1026mb 40f
Sun 12/10 11:54pm 3 5 mph 1026.6mb 40f
11:48pm 3 5 mph 1026.6mb 40f
10:54pm 5 6 mph 1026.8mb 43f
10:48pm 3 5 mph 1026.8mb 43f
9:54pm 3 5 mph 1026.3mb 43f
9:48pm 3 5 mph 1026.3mb 43f
8:54pm 5 6 mph 1026.4mb 43f
8:48pm 5 6 mph 1026.4mb 43f
7:54pm 5 6 mph 1026.3mb 44f
7:48pm 5 6 mph 1026.3mb 45f
6:54pm 3 5 mph 1025.8mb 46f
5:54pm 3 5 mph 1025.6mb 50f
4:54pm 2 5 mph 1025.2mb 51f
4:48pm 5 6 mph 1025.1mb 51f
3:54pm 8 11 mph 1025.1mb 52f
3:48pm 8 11 mph 1025.1mb 52f
2:54pm 7 10 mph 1024.8mb 53f
2:48pm 6 10 mph 1024.8mb 53f
1:54pm 9 13 mph 1025mb 50f
1:48pm 9 13 mph 1025mb 50f
12:54pm 8 11 mph 1025.6mb 49f
12:48pm 8 10 mph 1025.5mb 49f
11:54am 7 9 mph 1026.3mb 48f
11:48am 6 8 mph 1026.4mb 48f
10:54am 5 7 mph 1027.2mb 46f
10:48am 5 6 mph 1027.3mb 45f
9:54am 3 7 mph 1027.7mb 43f
9:48am 3 6 mph 1027.7mb 42f
8:54am 7 11 mph 1027.9mb 40f
7:54am 6 9 mph 1027.4mb 36f
7:48am 7 9 mph 1027.3mb 36f
6:54am 5 8 mph 1026.9mb 35f
6:48am 5 7 mph 1026.9mb 35f
5:54am 6 9 mph 1026.2mb 34f
5:48am 6 8 mph 1026mb 34f
4:54am 7 10 mph 1025.4mb 35f
4:48am 6 11 mph 1025.3mb 35f
3:54am 8 11 mph 1025.3mb 36f
3:48am 8 13 mph 1025.2mb 36f
2:54am 7 10 mph 1025.1mb 37f
2:48am 7 11 mph 1025.1mb 37f
1:54am 9 14 mph 1024.8mb 37f
1:48am 8 11 mph 1024.7mb 37f
12:54am 6 10 mph 1024.4mb 38f
12:48am 7 10 mph 1024.3mb 38f
Sat 12/09 11:54pm 8 11 mph 1024mb 39f
11:48pm 7 10 mph 1024mb 39f
10:54pm 6 9 mph 1023.7mb 39f
10:48pm 5 7 mph 1023.8mb 39f
9:54pm 6 8 mph 1023.6mb 39f
8:54pm 6 8 mph 1022.5mb 40f
7:54pm 7 11 mph 1021.8mb 41f
7:48pm 7 11 mph 1021.7mb 42f
6:54pm 7 10 mph 1020.9mb 44f
5:54pm 5 7 mph 1020mb 44f
5:48pm 3 6 mph 1019.9mb 44f
4:54pm 5 6 mph 1018.8mb 46f
4:48pm 5 7 mph 1018.7mb 46f
3:54pm 8 15 mph 1018.1mb 48f
3:48pm 7 11 mph 1018mb 48f
2:54pm 10 15 mph 1017.5mb 47f
2:48pm 10 17 mph 1017.3mb 47f
1:54pm 14 18 mph 1017mb 48f
1:48pm 11 18 mph 1017mb 49f
12:54pm 13 18 mph 1017.2mb 47f
12:48pm 10 17 mph 1017.2mb 47f
11:54am 10 16 mph 1017.7mb 45f
10:54am 15 24 mph 1018.1mb 44f
10:48am 16 22 mph 1018.1mb 44f
9:54am 10 14 mph 1017.8mb 45f
8:54am 15 23 mph 1017.1mb 42f
8:48am 14 23 mph 1017mb 42f
7:54am 15 29 mph 1016.4mb 42f
7:48am 16 24 mph 1016.3mb 42f
6:54am 11 18 mph 1015.9mb 42f
6:48am 11 16 mph 1015.9mb 42f
5:54am 9 15 mph 1015.1mb 42f
4:54am 8 11 mph 1014mb 42f
4:48am 8 10 mph 1013.7mb 42f
3:54am 9 13 mph 1013.7mb 43f
3:48am 9 14 mph 1013.8mb 43f
2:54am 9 14 mph 1013.4mb 43f
2:48am 9 14 mph 1013.4mb 43f
1:54am 7 11 mph 1012.6mb 44f
1:48am 10 14 mph 1012.6mb 44f
12:54am 10 17 mph 1012.8mb 45f
12:48am 10 15 mph 1012.7mb 45f
Fri 12/08 11:54pm 10 14 mph 1012.4mb 45f
11:48pm 10 15 mph 1012.1mb 45f
10:54pm 9 13 mph 1012.3mb 45f
9:54pm 7 13 mph 1011.8mb 45f
9:48pm 6 10 mph 1011.6mb 45f
8:54pm 8 11 mph 1011.3mb 45f
8:48pm 7 11 mph 1011.4mb 45f
7:54pm 7 9 mph 1011.7mb 45f
7:48pm 8 11 mph 1011.7mb 45f
6:54pm 9 14 mph 1011.5mb 45f
6:48pm 10 15 mph 1011.7mb 45f
5:54pm 8 15 mph 1010.4mb 45f
5:48pm 9 15 mph 1010.4mb 45f
4:54pm 10 16 mph 1010.3mb 45f
4:48pm 8 15 mph 1010mb 45f